sensor_id;sensor_type;location;lat;lon;timestamp;pressure;altitude;pressure_sealevel;temperature;humidity
39769;BME280;38939;47.824;14.642;2023-05-22T00:00:07;96748.97;;;15.18;73.42
39769;BME280;38939;47.824;14.642;2023-05-22T00:01:09;96752.41;;;15.07;73.55
39769;BME280;38939;47.824;14.642;2023-05-22T00:02:11;96751.84;;;15.05;73.38
39769;BME280;38939;47.824;14.642;2023-05-22T00:03:13;96747.09;;;15.02;73.05
39769;BME280;38939;47.824;14.642;2023-05-22T00:04:15;96743.66;;;15.01;73.08
39769;BME280;38939;47.824;14.642;2023-05-22T00:05:22;96745.47;;;15.00;72.60
39769;BME280;38939;47.824;14.642;2023-05-22T00:06:24;96743.41;;;15.03;72.89
39769;BME280;38939;47.824;14.642;2023-05-22T00:07:26;96734.09;;;14.95;73.60
39769;BME280;38939;47.824;14.642;2023-05-22T00:08:28;96742.22;;;14.82;74.17
39769;BME280;38939;47.824;14.642;2023-05-22T00:09:30;96743.59;;;14.84;72.68
39769;BME280;38939;47.824;14.642;2023-05-22T00:10:32;96744.97;;;14.87;72.52
39769;BME280;38939;47.824;14.642;2023-05-22T00:11:34;96744.41;;;14.85;72.40
39769;BME280;38939;47.824;14.642;2023-05-22T00:12:37;96743.13;;;14.87;71.95
39769;BME280;38939;47.824;14.642;2023-05-22T00:13:39;96739.56;;;14.93;72.09
39769;BME280;38939;47.824;14.642;2023-05-22T00:14:40;96742.19;;;14.93;71.81
39769;BME280;38939;47.824;14.642;2023-05-22T00:15:42;96733.28;;;14.94;72.25
39769;BME280;38939;47.824;14.642;2023-05-22T00:16:44;96736.94;;;14.93;71.77
39769;BME280;38939;47.824;14.642;2023-05-22T00:17:48;96740.38;;;14.94;71.61
39769;BME280;38939;47.824;14.642;2023-05-22T00:18:51;96739.00;;;14.91;72.77
39769;BME280;38939;47.824;14.642;2023-05-22T00:19:53;96736.75;;;14.83;73.69
39769;BME280;38939;47.824;14.642;2023-05-22T00:20:55;96739.81;;;14.80;73.16
39769;BME280;38939;47.824;14.642;2023-05-22T00:21:58;96737.47;;;14.78;73.03
39769;BME280;38939;47.824;14.642;2023-05-22T00:23:00;96736.41;;;14.79;72.85
39769;BME280;38939;47.824;14.642;2023-05-22T00:24:04;96740.97;;;14.84;73.29
39769;BME280;38939;47.824;14.642;2023-05-22T00:25:06;96739.03;;;14.79;73.88
39769;BME280;38939;47.824;14.642;2023-05-22T00:26:08;96741.88;;;14.78;73.60
39769;BME280;38939;47.824;14.642;2023-05-22T00:27:10;96746.34;;;14.77;73.29
39769;BME280;38939;47.824;14.642;2023-05-22T00:28:12;96745.44;;;14.72;74.48
39769;BME280;38939;47.824;14.642;2023-05-22T00:29:14;96744.53;;;14.66;74.17
39769;BME280;38939;47.824;14.642;2023-05-22T00:30:16;96747.41;;;14.65;74.44
39769;BME280;38939;47.824;14.642;2023-05-22T00:31:18;96744.66;;;14.59;75.07
39769;BME280;38939;47.824;14.642;2023-05-22T00:32:20;96743.97;;;14.52;75.10
39769;BME280;38939;47.824;14.642;2023-05-22T00:33:22;96739.66;;;14.46;75.73
39769;BME280;38939;47.824;14.642;2023-05-22T00:34:24;96742.94;;;14.53;74.45
39769;BME280;38939;47.824;14.642;2023-05-22T00:35:26;96742.53;;;14.56;74.59
39769;BME280;38939;47.824;14.642;2023-05-22T00:36:28;96746.59;;;14.52;74.98
39769;BME280;38939;47.824;14.642;2023-05-22T00:37:30;96741.56;;;14.51;75.20
39769;BME280;38939;47.824;14.642;2023-05-22T00:38:33;96736.34;;;14.39;76.27
39769;BME280;38939;47.824;14.642;2023-05-22T00:39:35;96746.38;;;14.42;74.66
39769;BME280;38939;47.824;14.642;2023-05-22T00:40:37;96748.09;;;14.48;75.27
39769;BME280;38939;47.824;14.642;2023-05-22T00:41:40;96747.97;;;14.43;75.66
39769;BME280;38939;47.824;14.642;2023-05-22T00:42:42;96737.47;;;14.43;75.53
39769;BME280;38939;47.824;14.642;2023-05-22T00:43:44;96744.00;;;14.40;75.55
39769;BME280;38939;47.824;14.642;2023-05-22T00:44:46;96741.13;;;14.42;75.30
39769;BME280;38939;47.824;14.642;2023-05-22T00:45:49;96742.59;;;14.38;75.83
39769;BME280;38939;47.824;14.642;2023-05-22T00:46:51;96740.69;;;14.33;76.27
39769;BME280;38939;47.824;14.642;2023-05-22T00:47:53;96741.47;;;14.34;75.42
39769;BME280;38939;47.824;14.642;2023-05-22T00:48:55;96742.38;;;14.39;74.57
39769;BME280;38939;47.824;14.642;2023-05-22T00:49:58;96736.47;;;14.44;73.80
39769;BME280;38939;47.824;14.642;2023-05-22T00:51:00;96736.56;;;14.49;73.88
39769;BME280;38939;47.824;14.642;2023-05-22T00:52:02;96742.38;;;14.51;73.37
39769;BME280;38939;47.824;14.642;2023-05-22T00:53:04;96736.66;;;14.54;73.19
39769;BME280;38939;47.824;14.642;2023-05-22T00:54:06;96733.00;;;14.55;73.19
39769;BME280;38939;47.824;14.642;2023-05-22T00:55:08;96741.47;;;14.57;72.84
39769;BME280;38939;47.824;14.642;2023-05-22T00:56:11;96734.84;;;14.55;73.61
39769;BME280;38939;47.824;14.642;2023-05-22T00:57:13;96733.81;;;14.56;72.96
39769;BME280;38939;47.824;14.642;2023-05-22T00:58:16;96740.09;;;14.55;73.12
39769;BME280;38939;47.824;14.642;2023-05-22T00:59:18;96738.72;;;14.52;73.72
39769;BME280;38939;47.824;14.642;2023-05-22T01:00:21;96730.16;;;14.45;73.55
39769;BME280;38939;47.824;14.642;2023-05-22T01:01:24;96726.19;;;14.43;73.17
39769;BME280;38939;47.824;14.642;2023-05-22T01:02:27;96733.00;;;14.44;73.04
39769;BME280;38939;47.824;14.642;2023-05-22T01:03:29;96727.41;;;14.40;74.31
39769;BME280;38939;47.824;14.642;2023-05-22T01:04:32;96728.91;;;14.36;73.99
39769;BME280;38939;47.824;14.642;2023-05-22T01:05:36;96724.22;;;14.38;73.75
39769;BME280;38939;47.824;14.642;2023-05-22T01:06:38;96726.84;;;14.38;73.84
39769;BME280;38939;47.824;14.642;2023-05-22T01:07:42;96721.84;;;14.36;74.49
39769;BME280;38939;47.824;14.642;2023-05-22T01:08:44;96727.19;;;14.30;74.47
39769;BME280;38939;47.824;14.642;2023-05-22T01:09:46;96723.44;;;14.26;74.05
39769;BME280;38939;47.824;14.642;2023-05-22T01:10:53;96727.69;;;14.27;74.33
39769;BME280;38939;47.824;14.642;2023-05-22T01:14:24;96725.41;;;14.30;74.71
39769;BME280;38939;47.824;14.642;2023-05-22T01:15:55;96725.41;;;14.30;73.91
39769;BME280;38939;47.824;14.642;2023-05-22T01:20:42;96715.13;;;14.29;73.84
39769;BME280;38939;47.824;14.642;2023-05-22T01:23:34;96725.50;;;14.24;74.06
39769;BME280;38939;47.824;14.642;2023-05-22T01:25:48;96732.94;;;14.27;73.17
39769;BME280;38939;47.824;14.642;2023-05-22T01:27:33;96731.88;;;14.28;73.54
39769;BME280;38939;47.824;14.642;2023-05-22T01:28:51;96727.69;;;14.27;73.77
39769;BME280;38939;47.824;14.642;2023-05-22T01:31:18;96732.47;;;14.06;75.28
39769;BME280;38939;47.824;14.642;2023-05-22T01:32:22;96733.03;;;14.08;74.52
39769;BME280;38939;47.824;14.642;2023-05-22T01:33:25;96732.34;;;14.13;73.49
39769;BME280;38939;47.824;14.642;2023-05-22T01:34:29;96731.91;;;14.16;73.19
39769;BME280;38939;47.824;14.642;2023-05-22T01:35:32;96736.34;;;14.15;73.74
39769;BME280;38939;47.824;14.642;2023-05-22T01:36:35;96736.59;;;14.14;74.32
39769;BME280;38939;47.824;14.642;2023-05-22T01:37:37;96733.16;;;14.13;74.28
39769;BME280;38939;47.824;14.642;2023-05-22T01:38:40;96739.22;;;14.14;73.16
39769;BME280;38939;47.824;14.642;2023-05-22T01:39:42;96738.41;;;14.13;73.85
39769;BME280;38939;47.824;14.642;2023-05-22T01:40:45;96739.09;;;14.09;74.22
39769;BME280;38939;47.824;14.642;2023-05-22T01:41:47;96732.22;;;14.08;73.77
39769;BME280;38939;47.824;14.642;2023-05-22T01:42:49;96743.06;;;14.11;74.34
39769;BME280;38939;47.824;14.642;2023-05-22T01:43:51;96736.81;;;14.12;73.65
39769;BME280;38939;47.824;14.642;2023-05-22T01:44:53;96735.56;;;14.15;73.63
39769;BME280;38939;47.824;14.642;2023-05-22T01:45:55;96729.50;;;14.14;73.74
39769;BME280;38939;47.824;14.642;2023-05-22T01:46:57;96736.25;;;14.10;73.88
39769;BME280;38939;47.824;14.642;2023-05-22T01:48:05;96738.28;;;14.08;74.96
39769;BME280;38939;47.824;14.642;2023-05-22T01:49:07;96741.94;;;14.07;74.46
39769;BME280;38939;47.824;14.642;2023-05-22T01:50:09;96738.53;;;14.07;74.36
39769;BME280;38939;47.824;14.642;2023-05-22T01:54:01;96738.66;;;14.12;73.93
39769;BME280;38939;47.824;14.642;2023-05-22T01:56:13;96733.50;;;14.05;74.79
39769;BME280;38939;47.824;14.642;2023-05-22T01:57:18;96731.91;;;14.04;73.96
39769;BME280;38939;47.824;14.642;2023-05-22T01:59:34;96735.53;;;14.03;73.90
39769;BME280;38939;47.824;14.642;2023-05-22T02:00:38;96736.91;;;14.06;73.45
39769;BME280;38939;47.824;14.642;2023-05-22T02:01:44;96733.28;;;14.07;73.49
39769;BME280;38939;47.824;14.642;2023-05-22T02:03:06;96733.84;;;14.09;73.72
39769;BME280;38939;47.824;14.642;2023-05-22T02:04:08;96732.34;;;14.01;73.79
39769;BME280;38939;47.824;14.642;2023-05-22T02:05:10;96739.22;;;14.02;73.29
39769;BME280;38939;47.824;14.642;2023-05-22T02:06:13;96734.97;;;14.01;74.16
39769;BME280;38939;47.824;14.642;2023-05-22T02:07:16;96742.28;;;13.99;73.88
39769;BME280;38939;47.824;14.642;2023-05-22T02:08:20;96735.75;;;14.01;74.27
39769;BME280;38939;47.824;14.642;2023-05-22T02:09:23;96734.75;;;14.03;73.74
39769;BME280;38939;47.824;14.642;2023-05-22T02:10:28;96731.91;;;14.04;73.17
39769;BME280;38939;47.824;14.642;2023-05-22T02:11:32;96726.88;;;14.03;73.40
39769;BME280;38939;47.824;14.642;2023-05-22T02:12:35;96729.06;;;13.94;73.71
39769;BME280;38939;47.824;14.642;2023-05-22T02:13:37;96721.06;;;13.89;74.13
39769;BME280;38939;47.824;14.642;2023-05-22T02:14:41;96727.34;;;13.88;74.01
39769;BME280;38939;47.824;14.642;2023-05-22T02:15:45;96721.84;;;13.89;74.01
39769;BME280;38939;47.824;14.642;2023-05-22T02:16:48;96722.31;;;13.86;74.18
39769;BME280;38939;47.824;14.642;2023-05-22T02:17:50;96719.91;;;13.85;73.96
39769;BME280;38939;47.824;14.642;2023-05-22T02:18:58;96717.88;;;13.87;73.71
39769;BME280;38939;47.824;14.642;2023-05-22T02:20:10;96713.19;;;13.89;73.66
39769;BME280;38939;47.824;14.642;2023-05-22T02:21:15;96717.28;;;13.85;73.60
39769;BME280;38939;47.824;14.642;2023-05-22T02:22:17;96710.47;;;13.84;74.55
39769;BME280;38939;47.824;14.642;2023-05-22T02:23:19;96715.94;;;13.82;74.40
39769;BME280;38939;47.824;14.642;2023-05-22T02:24:21;96713.84;;;13.72;75.89
39769;BME280;38939;47.824;14.642;2023-05-22T02:25:24;96711.66;;;13.69;75.96
39769;BME280;38939;47.824;14.642;2023-05-22T02:26:26;96713.72;;;13.67;75.86
39769;BME280;38939;47.824;14.642;2023-05-22T02:27:28;96706.53;;;13.63;76.11
39769;BME280;38939;47.824;14.642;2023-05-22T02:28:30;96707.13;;;13.65;75.18
39769;BME280;38939;47.824;14.642;2023-05-22T02:29:32;96708.94;;;13.64;75.80
39769;BME280;38939;47.824;14.642;2023-05-22T02:30:34;96708.72;;;13.66;75.96
39769;BME280;38939;47.824;14.642;2023-05-22T02:31:36;96706.31;;;13.64;76.01
39769;BME280;38939;47.824;14.642;2023-05-22T02:32:38;96713.97;;;13.66;75.26
39769;BME280;38939;47.824;14.642;2023-05-22T02:33:40;96710.66;;;13.70;75.07
39769;BME280;38939;47.824;14.642;2023-05-22T02:34:42;96713.28;;;13.70;75.40
39769;BME280;38939;47.824;14.642;2023-05-22T02:35:44;96714.19;;;13.64;75.45
39769;BME280;38939;47.824;14.642;2023-05-22T02:36:46;96710.84;;;13.57;75.75
39769;BME280;38939;47.824;14.642;2023-05-22T02:37:48;96704.81;;;13.56;75.45
39769;BME280;38939;47.824;14.642;2023-05-22T02:38:50;96716.47;;;13.60;75.14
39769;BME280;38939;47.824;14.642;2023-05-22T02:39:52;96709.38;;;13.61;75.30
39769;BME280;38939;47.824;14.642;2023-05-22T02:40:54;96707.22;;;13.58;75.16
39769;BME280;38939;47.824;14.642;2023-05-22T02:41:56;96708.16;;;13.64;74.63
39769;BME280;38939;47.824;14.642;2023-05-22T02:42:58;96706.31;;;13.64;74.79
39769;BME280;38939;47.824;14.642;2023-05-22T02:44:00;96712.34;;;13.65;74.55
39769;BME280;38939;47.824;14.642;2023-05-22T02:45:02;96709.53;;;13.66;74.47
39769;BME280;38939;47.824;14.642;2023-05-22T02:46:04;96713.72;;;13.67;74.49
39769;BME280;38939;47.824;14.642;2023-05-22T02:47:06;96709.97;;;13.63;74.41
39769;BME280;38939;47.824;14.642;2023-05-22T02:48:08;96707.13;;;13.65;74.24
39769;BME280;38939;47.824;14.642;2023-05-22T02:49:10;96713.41;;;13.64;74.87
39769;BME280;38939;47.824;14.642;2023-05-22T02:50:12;96712.25;;;13.59;74.77
39769;BME280;38939;47.824;14.642;2023-05-22T02:51:15;96704.81;;;13.56;75.31
39769;BME280;38939;47.824;14.642;2023-05-22T02:52:17;96714.38;;;13.51;75.62
39769;BME280;38939;47.824;14.642;2023-05-22T02:53:19;96717.31;;;13.43;75.48
39769;BME280;38939;47.824;14.642;2023-05-22T02:54:21;96712.53;;;13.39;76.16
39769;BME280;38939;47.824;14.642;2023-05-22T02:55:23;96707.16;;;13.34;76.57
39769;BME280;38939;47.824;14.642;2023-05-22T02:56:24;96710.81;;;13.33;76.45
39769;BME280;38939;47.824;14.642;2023-05-22T02:57:29;96705.59;;;13.33;76.55
39769;BME280;38939;47.824;14.642;2023-05-22T02:58:31;96706.38;;;13.34;75.71
39769;BME280;38939;47.824;14.642;2023-05-22T02:59:33;96706.72;;;13.37;76.74
39769;BME280;38939;47.824;14.642;2023-05-22T03:00:37;96710.94;;;13.38;76.33
39769;BME280;38939;47.824;14.642;2023-05-22T03:01:39;96713.56;;;13.38;76.32
39769;BME280;38939;47.824;14.642;2023-05-22T03:02:41;96712.53;;;13.39;76.30
39769;BME280;38939;47.824;14.642;2023-05-22T03:03:43;96712.75;;;13.38;76.77
39769;BME280;38939;47.824;14.642;2023-05-22T03:04:46;96710.94;;;13.38;76.65
39769;BME280;38939;47.824;14.642;2023-05-22T03:05:48;96711.72;;;13.39;76.52
39769;BME280;38939;47.824;14.642;2023-05-22T03:06:50;96715.16;;;13.39;76.32
39769;BME280;38939;47.824;14.642;2023-05-22T03:07:52;96710.94;;;13.38;75.91
39769;BME280;38939;47.824;14.642;2023-05-22T03:08:54;96709.34;;;13.37;75.57
39769;BME280;38939;47.824;14.642;2023-05-22T03:09:56;96712.53;;;13.39;76.45
39769;BME280;38939;47.824;14.642;2023-05-22T03:10:59;96705.13;;;13.36;76.50
39769;BME280;38939;47.824;14.642;2023-05-22T03:12:00;96707.16;;;13.34;76.22
39769;BME280;38939;47.824;14.642;2023-05-22T03:13:02;96712.75;;;13.38;75.46
39769;BME280;38939;47.824;14.642;2023-05-22T03:14:04;96711.50;;;13.40;75.01
39769;BME280;38939;47.824;14.642;2023-05-22T03:15:06;96713.13;;;13.42;75.79
39769;BME280;38939;47.824;14.642;2023-05-22T03:16:09;96718.38;;;13.42;75.52
39769;BME280;38939;47.824;14.642;2023-05-22T03:17:11;96718.69;;;13.45;74.61
39769;BME280;38939;47.824;14.642;2023-05-22T03:18:13;96713.44;;;13.45;74.98
39769;BME280;38939;47.824;14.642;2023-05-22T03:19:15;96722.13;;;13.46;74.69
39769;BME280;38939;47.824;14.642;2023-05-22T03:20:17;96716.69;;;13.47;74.52
39769;BME280;38939;47.824;14.642;2023-05-22T03:21:19;96719.06;;;13.49;74.33
39769;BME280;38939;47.824;14.642;2023-05-22T03:22:21;96724.06;;;13.50;74.23
39769;BME280;38939;47.824;14.642;2023-05-22T03:23:23;96716.44;;;13.49;74.29
39769;BME280;38939;47.824;14.642;2023-05-22T03:24:26;96723.84;;;13.52;74.37
39769;BME280;38939;47.824;14.642;2023-05-22T03:25:28;96715.78;;;13.53;74.38
39769;BME280;38939;47.824;14.642;2023-05-22T03:26:30;96714.16;;;13.52;74.90
39769;BME280;38939;47.824;14.642;2023-05-22T03:27:32;96719.19;;;13.54;74.16
39769;BME280;38939;47.824;14.642;2023-05-22T03:28:34;96708.47;;;13.55;74.55
39769;BME280;38939;47.824;14.642;2023-05-22T03:29:36;96710.06;;;13.56;74.32
39769;BME280;38939;47.824;14.642;2023-05-22T03:30:38;96709.06;;;13.57;73.72
39769;BME280;38939;47.824;14.642;2023-05-22T03:31:41;96713.25;;;13.58;73.49
39769;BME280;38939;47.824;14.642;2023-05-22T03:32:43;96713.25;;;13.58;73.47
39769;BME280;38939;47.824;14.642;2023-05-22T03:33:44;96709.50;;;13.54;73.53
39769;BME280;38939;47.824;14.642;2023-05-22T03:34:46;96709.72;;;13.53;73.75
39769;BME280;38939;47.824;14.642;2023-05-22T03:35:48;96713.16;;;13.53;74.15
39769;BME280;38939;47.824;14.642;2023-05-22T03:36:50;96704.94;;;13.50;74.12
39769;BME280;38939;47.824;14.642;2023-05-22T03:37:52;96708.88;;;13.40;74.92
39769;BME280;38939;47.824;14.642;2023-05-22T03:38:54;96707.53;;;13.38;74.34
39769;BME280;38939;47.824;14.642;2023-05-22T03:39:56;96703.53;;;13.35;74.68
39769;BME280;38939;47.824;14.642;2023-05-22T03:40:58;96700.91;;;13.35;74.63
39769;BME280;38939;47.824;14.642;2023-05-22T03:42:00;96701.50;;;13.37;74.47
39769;BME280;38939;47.824;14.642;2023-05-22T03:43:02;96697.03;;;13.38;74.29
39769;BME280;38939;47.824;14.642;2023-05-22T03:44:04;96701.03;;;13.40;74.48
39769;BME280;38939;47.824;14.642;2023-05-22T03:45:06;96703.44;;;13.42;74.83
39769;BME280;38939;47.824;14.642;2023-05-22T03:46:08;96695.22;;;13.38;75.60
39769;BME280;38939;47.824;14.642;2023-05-22T03:47:13;96703.75;;;13.34;75.72
39769;BME280;38939;47.824;14.642;2023-05-22T03:48:15;96697.38;;;13.30;75.74
39769;BME280;38939;47.824;14.642;2023-05-22T03:49:17;96702.38;;;13.31;75.74
39769;BME280;38939;47.824;14.642;2023-05-22T03:50:19;96697.72;;;13.33;75.11
39769;BME280;38939;47.824;14.642;2023-05-22T03:51:21;96700.44;;;13.38;75.08
39769;BME280;38939;47.824;14.642;2023-05-22T03:52:23;96698.88;;;13.37;75.44
39769;BME280;38939;47.824;14.642;2023-05-22T03:53:25;96695.44;;;13.37;75.37
39769;BME280;38939;47.824;14.642;2023-05-22T03:54:28;96698.50;;;13.34;75.96
39769;BME280;38939;47.824;14.642;2023-05-22T03:55:30;96700.78;;;13.30;76.08
39769;BME280;38939;47.824;14.642;2023-05-22T03:56:31;96701.81;;;13.29;75.42
39769;BME280;38939;47.824;14.642;2023-05-22T03:57:33;96696.31;;;13.31;75.11
39769;BME280;38939;47.824;14.642;2023-05-22T03:58:35;96698.72;;;13.32;74.94
39769;BME280;38939;47.824;14.642;2023-05-22T03:59:37;96695.09;;;13.33;75.16
39769;BME280;38939;47.824;14.642;2023-05-22T04:00:39;96701.34;;;13.32;75.73
39769;BME280;38939;47.824;14.642;2023-05-22T04:01:43;96702.38;;;13.31;75.62
39769;BME280;38939;47.824;14.642;2023-05-22T04:02:47;96696.69;;;13.34;76.44
39769;BME280;38939;47.824;14.642;2023-05-22T04:03:51;96698.34;;;13.29;76.71
39769;BME280;38939;47.824;14.642;2023-05-22T04:04:53;96698.44;;;13.22;76.69
39769;BME280;38939;47.824;14.642;2023-05-22T04:05:55;96695.81;;;13.22;76.50
39769;BME280;38939;47.824;14.642;2023-05-22T04:06:57;96700.06;;;13.23;76.65
39769;BME280;38939;47.824;14.642;2023-05-22T04:07:59;96696.97;;;13.26;76.03
39769;BME280;38939;47.824;14.642;2023-05-22T04:09:01;96703.00;;;13.27;75.98
39769;BME280;38939;47.824;14.642;2023-05-22T04:10:04;96705.00;;;13.31;75.77
39769;BME280;38939;47.824;14.642;2023-05-22T04:11:06;96702.97;;;13.33;75.82
39769;BME280;38939;47.824;14.642;2023-05-22T04:12:09;96707.16;;;13.34;75.77
39769;BME280;38939;47.824;14.642;2023-05-22T04:13:14;96702.28;;;13.38;75.42
39769;BME280;38939;47.824;14.642;2023-05-22T04:14:16;96701.03;;;13.40;75.68
39769;BME280;38939;47.824;14.642;2023-05-22T04:15:18;96708.09;;;13.40;76.14
39769;BME280;38939;47.824;14.642;2023-05-22T04:16:20;96706.16;;;13.35;76.92
39769;BME280;38939;47.824;14.642;2023-05-22T04:17:24;96706.81;;;13.31;76.64
39769;BME280;38939;47.824;14.642;2023-05-22T04:18:26;96706.09;;;13.24;77.18
39769;BME280;38939;47.824;14.642;2023-05-22T04:19:29;96703.69;;;13.22;76.40
39769;BME280;38939;47.824;14.642;2023-05-22T04:20:31;96707.66;;;13.25;76.08
39769;BME280;38939;47.824;14.642;2023-05-22T04:21:33;96708.81;;;13.29;76.21
39769;BME280;38939;47.824;14.642;2023-05-22T04:22:36;96710.66;;;13.28;76.82
39769;BME280;38939;47.824;14.642;2023-05-22T04:23:39;96713.28;;;13.28;76.68
39769;BME280;38939;47.824;14.642;2023-05-22T04:24:43;96702.44;;;13.25;76.84
39769;BME280;38939;47.824;14.642;2023-05-22T04:25:50;96708.50;;;13.25;76.21
39769;BME280;38939;47.824;14.642;2023-05-22T04:26:52;96714.06;;;13.29;76.03
39769;BME280;38939;47.824;14.642;2023-05-22T04:27:54;96711.03;;;13.32;75.97
39769;BME280;38939;47.824;14.642;2023-05-22T04:28:56;96709.78;;;13.34;75.77
39769;BME280;38939;47.824;14.642;2023-05-22T04:29:58;96704.75;;;13.33;76.82
39769;BME280;38939;47.824;14.642;2023-05-22T04:31:00;96706.44;;;13.27;76.57
39769;BME280;38939;47.824;14.642;2023-05-22T04:32:03;96707.06;;;13.29;76.28
39769;BME280;38939;47.824;14.642;2023-05-22T04:33:06;96704.75;;;13.33;76.20
39769;BME280;38939;47.824;14.642;2023-05-22T04:34:14;96707.38;;;13.33;77.10
39769;BME280;38939;47.824;14.642;2023-05-22T04:35:16;96705.34;;;13.35;76.59
39769;BME280;38939;47.824;14.642;2023-05-22T04:36:19;96704.53;;;13.34;76.66
39769;BME280;38939;47.824;14.642;2023-05-22T04:37:23;96706.16;;;13.35;76.94
39769;BME280;38939;47.824;14.642;2023-05-22T04:38:27;96712.41;;;13.34;76.87
39769;BME280;38939;47.824;14.642;2023-05-22T04:39:29;96709.22;;;13.32;77.04
39769;BME280;38939;47.824;14.642;2023-05-22T04:40:31;96707.97;;;13.35;76.95
39769;BME280;38939;47.824;14.642;2023-05-22T04:41:38;96704.69;;;13.39;76.77
39769;BME280;38939;47.824;14.642;2023-05-22T04:42:41;96705.25;;;13.42;76.78
39769;BME280;38939;47.824;14.642;2023-05-22T04:43:43;96705.84;;;13.44;76.44
39769;BME280;38939;47.824;14.642;2023-05-22T04:44:45;96704.00;;;13.44;76.84
39769;BME280;38939;47.824;14.642;2023-05-22T04:45:47;96711.50;;;13.40;77.61
39769;BME280;38939;47.824;14.642;2023-05-22T04:46:49;96703.41;;;13.30;77.96
39769;BME280;38939;47.824;14.642;2023-05-22T04:47:51;96702.78;;;13.28;77.95
39769;BME280;38939;47.824;14.642;2023-05-22T04:48:53;96703.97;;;13.32;77.47
39769;BME280;38939;47.824;14.642;2023-05-22T04:49:56;96703.53;;;13.35;77.40
39769;BME280;38939;47.824;14.642;2023-05-22T04:50:59;96703.53;;;13.35;77.28
39769;BME280;38939;47.824;14.642;2023-05-22T04:52:03;96710.94;;;13.38;76.66
39769;BME280;38939;47.824;14.642;2023-05-22T04:53:07;96704.22;;;13.43;76.38
39769;BME280;38939;47.824;14.642;2023-05-22T04:54:09;96708.00;;;13.47;76.33
39769;BME280;38939;47.824;14.642;2023-05-22T04:55:11;96704.56;;;13.46;77.06
39769;BME280;38939;47.824;14.642;2023-05-22T04:56:13;96702.75;;;13.47;77.33
39769;BME280;38939;47.824;14.642;2023-05-22T04:57:28;96707.06;;;13.41;78.08
39769;BME280;38939;47.824;14.642;2023-05-22T04:58:30;96698.34;;;13.29;78.98
39769;BME280;38939;47.824;14.642;2023-05-22T04:59:34;96706.44;;;13.27;78.54
39769;BME280;38939;47.824;14.642;2023-05-22T05:00:38;96703.19;;;13.32;78.51
39769;BME280;38939;47.824;14.642;2023-05-22T05:01:41;96705.59;;;13.33;78.11
39769;BME280;38939;47.824;14.642;2023-05-22T05:02:46;96707.75;;;13.36;78.17
39769;BME280;38939;47.824;14.642;2023-05-22T05:03:48;96706.28;;;13.40;77.89
39769;BME280;38939;47.824;14.642;2023-05-22T05:04:50;96705.25;;;13.42;78.02
39769;BME280;38939;47.824;14.642;2023-05-22T05:05:53;96705.59;;;13.45;77.29
39769;BME280;38939;47.824;14.642;2023-05-22T05:06:55;96699.13;;;13.48;77.42
39769;BME280;38939;47.824;14.642;2023-05-22T05:07:58;96714.06;;;13.47;77.90
39769;BME280;38939;47.824;14.642;2023-05-22T05:09:00;96705.38;;;13.47;77.72
39769;BME280;38939;47.824;14.642;2023-05-22T05:10:02;96708.56;;;13.49;77.12
39769;BME280;38939;47.824;14.642;2023-05-22T05:11:04;96702.09;;;13.51;77.25
39769;BME280;38939;47.824;14.642;2023-05-22T05:12:06;96707.91;;;13.53;76.50
39769;BME280;38939;47.824;14.642;2023-05-22T05:13:09;96704.25;;;13.54;77.00
39769;BME280;38939;47.824;14.642;2023-05-22T05:14:11;96703.47;;;13.54;76.71
39769;BME280;38939;47.824;14.642;2023-05-22T05:15:13;96701.06;;;13.52;77.48
39769;BME280;38939;47.824;14.642;2023-05-22T05:16:15;96708.47;;;13.55;77.29
39769;BME280;38939;47.824;14.642;2023-05-22T05:17:17;96698.78;;;13.56;78.09
39769;BME280;38939;47.824;14.642;2023-05-22T05:18:19;96703.47;;;13.54;78.25
39769;BME280;38939;47.824;14.642;2023-05-22T05:19:21;96699.22;;;13.53;78.84
39769;BME280;38939;47.824;14.642;2023-05-22T05:20:23;96692.25;;;13.47;79.49
39769;BME280;38939;47.824;14.642;2023-05-22T05:21:25;96701.97;;;13.46;78.89
39769;BME280;38939;47.824;14.642;2023-05-22T05:22:28;96699.34;;;13.46;78.76
39769;BME280;38939;47.824;14.642;2023-05-22T05:23:30;96699.91;;;13.48;78.47
39769;BME280;38939;47.824;14.642;2023-05-22T05:24:32;96692.03;;;13.48;78.29
39769;BME280;38939;47.824;14.642;2023-05-22T05:25:34;96695.25;;;13.50;78.17
39769;BME280;38939;47.824;14.642;2023-05-22T05:26:39;96699.69;;;13.50;78.57
39769;BME280;38939;47.824;14.642;2023-05-22T05:27:41;96693.66;;;13.49;79.04
39769;BME280;38939;47.824;14.642;2023-05-22T05:28:43;96693.97;;;13.53;78.49
39769;BME280;38939;47.824;14.642;2023-05-22T05:29:45;96692.75;;;13.55;77.98
39769;BME280;38939;47.824;14.642;2023-05-22T05:30:47;96692.28;;;13.58;77.79
39769;BME280;38939;47.824;14.642;2023-05-22T05:31:49;96691.28;;;13.59;77.72
39769;BME280;38939;47.824;14.642;2023-05-22T05:32:51;96692.66;;;13.62;77.97
39769;BME280;38939;47.824;14.642;2023-05-22T05:33:53;96693.00;;;13.66;77.90
39769;BME280;38939;47.824;14.642;2023-05-22T05:34:58;96689.69;;;13.70;78.58
39769;BME280;38939;47.824;14.642;2023-05-22T05:36:00;96691.84;;;13.73;78.49
39769;BME280;38939;47.824;14.642;2023-05-22T05:37:03;96688.78;;;13.76;78.38
39769;BME280;38939;47.824;14.642;2023-05-22T05:38:05;96689.34;;;13.78;78.90
39769;BME280;38939;47.824;14.642;2023-05-22T05:39:07;96684.69;;;13.80;79.43
39769;BME280;38939;47.824;14.642;2023-05-22T05:40:10;96684.69;;;13.80;80.17
39769;BME280;38939;47.824;14.642;2023-05-22T05:41:12;96688.34;;;13.79;79.82
39769;BME280;38939;47.824;14.642;2023-05-22T05:42:14;96688.34;;;13.79;79.74
39769;BME280;38939;47.824;14.642;2023-05-22T05:43:17;96688.91;;;13.82;79.67
39769;BME280;38939;47.824;14.642;2023-05-22T05:44:20;96686.84;;;13.84;79.64